Time;durP1;ratioP1;P1;durP2;ratioP2;P2;SDS_P1;SDS_P2;PMS_P1;PMS_P2;Temp;Humidity;BMP_temperature;BMP_pressure;BME280_temperature;BME280_humidity;BME280_pressure;Samples;Min_cycle;Max_cycle;Signal;HPM_P1;HPM_P2
2022/08/26 00:00:40;;;;;;;;;;;19.80;99.90;;;;;;5054950;28;19909;-74
2022/08/26 00:03:06;;;;;;;;;;;19.80;99.90;;;;;;5056388;28;19909;-84
2022/08/26 00:05:32;;;;;;;;;;;19.80;99.90;;;;;;5055440;28;19913;-84
2022/08/26 00:07:58;;;;;;;;;;;19.80;99.90;;;;;;5057978;28;20261;-84
2022/08/26 00:10:23;;;;;;;;;;;19.70;99.90;;;;;;5058696;28;19916;-74
2022/08/26 00:12:50;;;;;;;;;;;19.80;99.90;;;;;;5057838;28;19909;-73
2022/08/26 00:15:17;;;;;;;;;;;19.80;99.90;;;;;;5054757;28;20387;-84
2022/08/26 00:17:43;;;;;;;;;;;19.80;99.90;;;;;;5064063;28;19913;-84
2022/08/26 00:20:10;;;;;;;;;;;19.80;99.90;;;;;;5053961;28;20008;-84
2022/08/26 00:22:37;;;;;;;;;;;19.80;99.90;;;;;;5055929;28;20371;-84
2022/08/26 00:25:03;;;;;;;;;;;19.80;99.90;;;;;;5048281;28;19913;-73
2022/08/26 00:27:32;;;;;;;;;;;19.80;99.90;;;;;;5060164;28;20337;-83
2022/08/26 00:30:01;;;;;;;;;;;19.80;99.90;;;;;;5056368;28;19920;-83
2022/08/26 00:32:26;;;;;;;;;;;19.80;99.90;;;;;;5056082;28;19920;-83
2022/08/26 00:34:52;;;;;;;;;;;19.80;99.90;;;;;;5054626;28;19917;-73
2022/08/26 00:37:17;;;;;;;;;;;19.80;99.90;;;;;;5053399;28;19908;-73
2022/08/26 00:39:49;;;;;;;;;;;19.80;99.90;;;;;;5054825;28;19915;-73
2022/08/26 00:42:14;;;;;;;;;;;19.80;99.90;;;;;;5055929;28;19924;-84
2022/08/26 00:47:45;;;;;;;;;;;19.80;99.90;;;;;;5065963;28;20436;-83
2022/08/26 00:50:12;;;;;;;;;;;19.70;99.90;;;;;;5059671;28;19955;-74
2022/08/26 00:52:38;;;;;;;;;;;19.70;99.90;;;;;;5055424;28;19913;-74
2022/08/26 00:55:13;;;;;;;;;;;19.70;99.90;;;;;;5061474;28;19920;-83
2022/08/26 00:57:39;;;;;;;;;;;19.70;99.90;;;;;;5066157;28;19944;-83
2022/08/26 01:00:08;;;;;;;;;;;19.70;99.90;;;;;;5059196;28;19976;-84
2022/08/26 01:02:33;;;;;;;;;;;19.60;99.90;;;;;;5059148;28;19909;-84
2022/08/26 01:05:01;;;;;;;;;;;19.60;99.90;;;;;;5056133;28;19986;-73
2022/08/26 01:07:28;;;;;;;;;;;19.50;99.90;;;;;;5057975;28;19917;-83
2022/08/26 01:09:54;;;;;;;;;;;19.50;99.90;;;;;;5057928;28;19970;-83
2022/08/26 01:12:20;;;;;;;;;;;19.60;99.90;;;;;;5067867;28;19909;-84
2022/08/26 01:14:46;;;;;;;;;;;19.60;99.90;;;;;;5056788;28;19923;-83
2022/08/26 01:17:11;;;;;;;;;;;19.60;99.90;;;;;;5057865;28;19941;-73
2022/08/26 01:19:41;;;;;;;;;;;19.50;99.90;;;;;;5062147;28;19916;-84
2022/08/26 01:22:08;;;;;;;;;;;19.60;99.90;;;;;;5060466;28;19909;-84
2022/08/26 01:24:35;;;;;;;;;;;19.60;99.90;;;;;;5055293;28;19909;-84
2022/08/26 01:27:03;;;;;;;;;;;19.60;99.90;;;;;;5063570;28;19951;-83
2022/08/26 01:29:30;;;;;;;;;;;19.60;99.90;;;;;;5061609;28;19948;-73
2022/08/26 01:31:56;;;;;;;;;;;19.50;99.90;;;;;;5054820;28;20273;-73
2022/08/26 01:34:35;;;;;;;;;;;19.50;99.90;;;;;;5057137;28;19908;-84
2022/08/26 01:37:11;;;;;;;;;;;19.50;99.90;;;;;;5057895;28;19919;-83
2022/08/26 01:39:38;;;;;;;;;;;19.50;99.90;;;;;;5058575;28;20328;-73
2022/08/26 01:42:04;;;;;;;;;;;19.50;99.90;;;;;;5056308;28;20400;-74
2022/08/26 01:44:32;;;;;;;;;;;19.50;99.90;;;;;;5054534;28;20290;-74
2022/08/26 01:46:58;;;;;;;;;;;19.40;99.90;;;;;;5058952;28;19952;-83
2022/08/26 01:49:25;;;;;;;;;;;19.40;99.90;;;;;;5063898;28;19912;-83
2022/08/26 01:51:52;;;;;;;;;;;19.30;99.90;;;;;;5062169;28;20283;-83
2022/08/26 01:54:18;;;;;;;;;;;19.30;99.90;;;;;;5054903;28;20390;-73
2022/08/26 01:56:44;;;;;;;;;;;19.30;99.90;;;;;;5054093;28;19909;-73
2022/08/26 01:59:12;;;;;;;;;;;19.20;99.90;;;;;;5056554;28;20284;-83
2022/08/26 02:01:38;;;;;;;;;;;19.20;99.90;;;;;;5059549;28;19961;-83
2022/08/26 02:04:09;;;;;;;;;;;19.10;99.90;;;;;;5056527;28;19991;-73
2022/08/26 02:06:36;;;;;;;;;;;19.10;99.90;;;;;;5056885;28;19913;-83
2022/08/26 02:09:03;;;;;;;;;;;19.00;99.90;;;;;;5055054;28;19908;-73
2022/08/26 02:11:29;;;;;;;;;;;18.90;99.90;;;;;;5057927;28;19909;-83
2022/08/26 02:13:57;;;;;;;;;;;18.90;99.90;;;;;;5058727;28;19916;-83
2022/08/26 02:16:25;;;;;;;;;;;18.90;99.90;;;;;;5059977;28;19924;-84
2022/08/26 02:18:52;;;;;;;;;;;18.90;99.90;;;;;;5056820;28;19960;-82
2022/08/26 02:21:18;;;;;;;;;;;18.90;99.90;;;;;;5061223;28;19948;-84
2022/08/26 02:23:43;;;;;;;;;;;18.90;99.90;;;;;;5049933;28;19932;-73
2022/08/26 02:26:10;;;;;;;;;;;18.90;99.90;;;;;;5057556;28;19909;-83
2022/08/26 02:28:39;;;;;;;;;;;18.90;99.90;;;;;;5064449;28;19923;-84
2022/08/26 02:31:04;;;;;;;;;;;18.90;99.90;;;;;;5056136;28;19925;-73
2022/08/26 02:33:30;;;;;;;;;;;18.80;99.90;;;;;;5056279;28;19909;-73
2022/08/26 02:35:55;;;;;;;;;;;18.80;99.90;;;;;;5054900;28;19919;-83
2022/08/26 02:38:21;;;;;;;;;;;18.80;99.90;;;;;;5053739;28;20283;-83
2022/08/26 02:40:46;;;;;;;;;;;18.80;99.90;;;;;;5056393;28;19909;-73
2022/08/26 02:43:12;;;;;;;;;;;18.80;99.90;;;;;;5056883;28;20294;-83
2022/08/26 02:45:39;;;;;;;;;;;18.80;99.90;;;;;;5058134;28;19908;-83
2022/08/26 02:48:12;;;;;;;;;;;18.80;99.90;;;;;;5059074;28;19935;-73
2022/08/26 02:50:38;;;;;;;;;;;18.80;99.90;;;;;;5054871;28;19912;-83
2022/08/26 02:53:03;;;;;;;;;;;18.80;99.90;;;;;;5059404;28;19939;-83
2022/08/26 02:55:29;;;;;;;;;;;18.70;99.90;;;;;;5060661;28;19919;-83
2022/08/26 02:57:54;;;;;;;;;;;18.80;99.90;;;;;;5060228;28;19915;-83
2022/08/26 03:00:20;;;;;;;;;;;18.70;99.90;;;;;;5056875;28;20025;-73
2022/08/26 03:02:45;;;;;;;;;;;18.80;99.90;;;;;;5053049;28;20291;-73
2022/08/26 03:05:11;;;;;;;;;;;18.80;99.90;;;;;;5054900;28;19909;-83
2022/08/26 03:07:37;;;;;;;;;;;18.80;99.90;;;;;;5056165;28;19967;-73
2022/08/26 03:10:04;;;;;;;;;;;18.80;99.90;;;;;;5055264;28;19913;-83
2022/08/26 03:12:30;;;;;;;;;;;18.70;99.90;;;;;;5062737;28;19916;-73
2022/08/26 03:14:56;;;;;;;;;;;18.70;99.90;;;;;;5053939;28;19999;-83
2022/08/26 03:17:22;;;;;;;;;;;18.70;99.90;;;;;;5053251;28;20390;-73
2022/08/26 03:19:47;;;;;;;;;;;18.60;99.90;;;;;;5052702;28;19909;-73
2022/08/26 03:22:12;;;;;;;;;;;18.60;99.90;;;;;;5058026;28;19991;-83
2022/08/26 03:24:38;;;;;;;;;;;18.50;99.90;;;;;;5051254;28;20054;-83
2022/08/26 03:27:04;;;;;;;;;;;18.50;99.90;;;;;;5057466;28;19916;-73
2022/08/26 03:32:15;;;;;;;;;;;18.40;99.90;;;;;;5056247;28;19984;-83
2022/08/26 03:34:41;;;;;;;;;;;18.40;99.90;;;;;;5056035;28;19912;-83
2022/08/26 03:37:06;;;;;;;;;;;18.40;99.90;;;;;;5054564;28;20336;-84
2022/08/26 03:39:32;;;;;;;;;;;18.30;99.90;;;;;;5055804;28;20347;-73
2022/08/26 03:41:57;;;;;;;;;;;18.30;99.90;;;;;;5050488;28;19913;-73
2022/08/26 03:44:23;;;;;;;;;;;18.30;99.90;;;;;;5055758;28;19908;-83
2022/08/26 03:46:48;;;;;;;;;;;18.30;99.90;;;;;;5053537;28;20314;-83
2022/08/26 03:49:14;;;;;;;;;;;18.30;99.90;;;;;;5060122;28;19909;-73
2022/08/26 03:51:39;;;;;;;;;;;18.30;99.90;;;;;;5053954;28;19916;-73
2022/08/26 03:54:06;;;;;;;;;;;18.30;99.90;;;;;;5055835;28;19916;-83
2022/08/26 03:56:32;;;;;;;;;;;18.30;99.90;;;;;;5062947;28;19912;-83
2022/08/26 03:59:01;;;;;;;;;;;18.20;99.90;;;;;;5055065;28;19920;-83
2022/08/26 04:01:26;;;;;;;;;;;18.20;99.90;;;;;;5047553;28;19948;-81
2022/08/26 04:03:58;;;;;;;;;;;18.20;99.90;;;;;;5055451;28;20441;-83
2022/08/26 04:06:26;;;;;;;;;;;18.20;99.90;;;;;;5054142;28;19931;-73
2022/08/26 04:08:55;;;;;;;;;;;18.20;99.90;;;;;;5055104;28;20003;-83
2022/08/26 04:11:22;;;;;;;;;;;18.10;99.90;;;;;;5060185;28;19917;-82
2022/08/26 04:13:47;;;;;;;;;;;18.10;99.90;;;;;;5070159;28;19908;-83
2022/08/26 04:16:14;;;;;;;;;;;18.10;99.90;;;;;;5053371;28;19979;-83
2022/08/26 04:18:39;;;;;;;;;;;18.00;99.90;;;;;;5053479;28;19908;-73
2022/08/26 04:21:05;;;;;;;;;;;18.00;99.90;;;;;;5057597;28;19909;-73
2022/08/26 04:23:31;;;;;;;;;;;18.00;99.90;;;;;;5051316;28;19916;-83
2022/08/26 04:25:56;;;;;;;;;;;17.90;99.90;;;;;;5059533;28;20003;-83
2022/08/26 04:28:22;;;;;;;;;;;17.90;99.90;;;;;;5066934;28;20286;-83
2022/08/26 04:30:48;;;;;;;;;;;17.90;99.90;;;;;;5056947;28;19925;-73
2022/08/26 04:33:14;;;;;;;;;;;17.90;99.90;;;;;;5056174;28;19909;-73
2022/08/26 04:35:39;;;;;;;;;;;17.80;99.90;;;;;;5057698;28;19919;-83
2022/08/26 04:38:05;;;;;;;;;;;17.80;99.90;;;;;;5058968;28;19916;-83
2022/08/26 04:40:30;;;;;;;;;;;17.70;99.90;;;;;;5058365;28;19913;-82
2022/08/26 04:42:56;;;;;;;;;;;17.70;99.90;;;;;;5057198;28;19913;-83
2022/08/26 04:45:22;;;;;;;;;;;17.70;99.90;;;;;;5055837;28;19909;-83
2022/08/26 04:47:47;;;;;;;;;;;17.70;99.90;;;;;;5061843;28;19915;-83
2022/08/26 04:50:14;;;;;;;;;;;17.70;99.90;;;;;;5058577;28;19913;-83
2022/08/26 04:52:39;;;;;;;;;;;17.70;99.90;;;;;;5058798;28;19909;-83
2022/08/26 04:55:06;;;;;;;;;;;17.70;99.90;;;;;;5058394;28;20011;-83
2022/08/26 04:57:32;;;;;;;;;;;17.70;99.90;;;;;;5062566;28;20330;-73
2022/08/26 04:59:58;;;;;;;;;;;17.70;99.90;;;;;;5056185;28;20446;-83
2022/08/26 05:02:23;;;;;;;;;;;17.70;99.90;;;;;;5057878;28;19908;-83
2022/08/26 05:04:49;;;;;;;;;;;17.70;99.90;;;;;;5059913;28;19916;-83
2022/08/26 05:07:14;;;;;;;;;;;17.70;99.90;;;;;;5060075;28;19908;-83
2022/08/26 05:09:40;;;;;;;;;;;17.70;99.90;;;;;;5056533;28;20291;-72
2022/08/26 05:12:06;;;;;;;;;;;17.70;99.90;;;;;;5063672;28;19951;-73
2022/08/26 05:14:31;;;;;;;;;;;17.70;99.90;;;;;;5054658;28;19920;-82
2022/08/26 05:16:57;;;;;;;;;;;17.70;99.90;;;;;;5056731;28;19954;-82
2022/08/26 05:19:22;;;;;;;;;;;17.70;99.90;;;;;;5057662;28;19920;-83
2022/08/26 05:21:48;;;;;;;;;;;17.70;99.90;;;;;;5060432;28;19951;-81
2022/08/26 05:24:14;;;;;;;;;;;17.80;99.90;;;;;;5057540;28;19959;-73
2022/08/26 05:26:39;;;;;;;;;;;17.70;99.90;;;;;;5055629;28;19909;-73
2022/08/26 05:29:05;;;;;;;;;;;17.80;99.90;;;;;;5063849;28;19920;-83
2022/08/26 05:31:31;;;;;;;;;;;17.80;99.90;;;;;;5059023;28;19959;-73
2022/08/26 05:33:58;;;;;;;;;;;17.80;99.90;;;;;;5058778;28;19909;-83
2022/08/26 05:36:26;;;;;;;;;;;17.80;99.90;;;;;;5053073;28;20225;-73
2022/08/26 05:38:51;;;;;;;;;;;17.90;99.90;;;;;;5054778;28;19913;-75
2022/08/26 05:41:19;;;;;;;;;;;17.90;99.90;;;;;;5053401;28;19970;-85
2022/08/26 05:43:45;;;;;;;;;;;17.90;99.90;;;;;;5055221;28;20433;-76
2022/08/26 05:46:10;;;;;;;;;;;17.90;99.90;;;;;;5055274;28;19909;-85
2022/08/26 05:48:36;;;;;;;;;;;17.90;99.90;;;;;;5061146;28;19909;-73
2022/08/26 05:51:03;;;;;;;;;;;17.90;99.90;;;;;;5055828;28;19913;-73
2022/08/26 05:53:29;;;;;;;;;;;18.00;99.90;;;;;;5055610;28;19915;-83
2022/08/26 05:55:55;;;;;;;;;;;18.00;99.90;;;;;;5063006;28;19912;-83
2022/08/26 05:58:21;;;;;;;;;;;18.00;99.90;;;;;;5054213;28;19948;-84
2022/08/26 06:00:57;;;;;;;;;;;18.00;99.90;;;;;;5054035;28;19908;-80
2022/08/26 06:03:22;;;;;;;;;;;18.10;99.90;;;;;;5054501;28;20338;-74
2022/08/26 06:05:48;;;;;;;;;;;18.10;99.90;;;;;;5052185;28;20833;-83
2022/08/26 06:08:14;;;;;;;;;;;18.10;99.90;;;;;;5053678;28;20004;-84
2022/08/26 06:10:47;;;;;;;;;;;18.20;99.90;;;;;;5055924;28;19916;-84
2022/08/26 06:13:13;;;;;;;;;;;18.30;99.90;;;;;;5054534;28;20026;-83
2022/08/26 06:15:40;;;;;;;;;;;18.40;99.90;;;;;;5048621;28;19916;-74
2022/08/26 06:18:06;;;;;;;;;;;18.40;99.90;;;;;;5053254;28;19962;-74
2022/08/26 06:20:32;;;;;;;;;;;18.40;99.90;;;;;;5057205;28;19912;-83
2022/08/26 06:25:41;;;;;;;;;;;18.50;99.90;;;;;;5056353;28;20425;-84
2022/08/26 06:28:07;;;;;;;;;;;18.60;99.90;;;;;;5063245;28;19961;-74
2022/08/26 06:30:37;;;;;;;;;;;18.60;99.90;;;;;;5056159;28;20407;-74
2022/08/26 06:33:02;;;;;;;;;;;18.70;99.90;;;;;;5056938;28;20008;-84
2022/08/26 06:35:28;;;;;;;;;;;18.90;99.90;;;;;;5055843;28;19964;-84
2022/08/26 06:37:54;;;;;;;;;;;19.00;99.90;;;;;;5058981;28;19908;-83
2022/08/26 06:40:22;;;;;;;;;;;19.10;99.90;;;;;;5056047;28;20230;-74
2022/08/26 06:42:48;;;;;;;;;;;19.20;99.90;;;;;;5053190;28;19913;-74
2022/08/26 06:45:13;;;;;;;;;;;19.30;99.90;;;;;;5054380;28;19908;-81
2022/08/26 06:47:39;;;;;;;;;;;19.30;99.90;;;;;;5058876;28;19913;-78
2022/08/26 06:50:04;;;;;;;;;;;19.40;99.90;;;;;;5056127;28;19909;-82
2022/08/26 06:52:30;;;;;;;;;;;19.50;99.90;;;;;;5063183;28;19916;-84
2022/08/26 06:54:55;;;;;;;;;;;19.70;99.90;;;;;;5054626;28;19916;-73
2022/08/26 06:57:21;;;;;;;;;;;19.80;99.90;;;;;;5056710;28;20007;-84
2022/08/26 06:59:47;;;;;;;;;;;19.70;99.90;;;;;;5055307;28;19913;-74
2022/08/26 07:02:13;;;;;;;;;;;19.80;99.90;;;;;;5050063;28;19917;-74
2022/08/26 07:04:38;;;;;;;;;;;19.90;99.90;;;;;;5065828;28;19927;-83
2022/08/26 07:07:04;;;;;;;;;;;20.00;99.90;;;;;;5053517;28;19917;-84
2022/08/26 07:09:31;;;;;;;;;;;20.20;99.90;;;;;;5050371;28;19912;-83
2022/08/26 07:11:57;;;;;;;;;;;20.10;99.90;;;;;;5048521;28;19919;-84
2022/08/26 07:14:24;;;;;;;;;;;20.10;99.90;;;;;;5051857;28;19912;-82
2022/08/26 07:16:49;;;;;;;;;;;20.20;99.90;;;;;;5045756;28;20315;-83
2022/08/26 07:19:18;;;;;;;;;;;20.20;99.90;;;;;;5053901;28;19920;-82
2022/08/26 07:21:44;;;;;;;;;;;20.20;99.90;;;;;;5050575;28;19996;-74
2022/08/26 07:24:10;;;;;;;;;;;20.20;99.90;;;;;;5042740;28;20419;-78
2022/08/26 07:26:35;;;;;;;;;;;20.10;99.90;;;;;;5052252;28;19913;-82
2022/08/26 07:29:01;;;;;;;;;;;20.20;99.90;;;;;;5056620;28;19967;-83
2022/08/26 07:31:28;;;;;;;;;;;20.20;99.90;;;;;;5052840;28;20004;-83
2022/08/26 07:33:54;;;;;;;;;;;20.40;99.90;;;;;;5052894;28;19917;-74
2022/08/26 07:36:20;;;;;;;;;;;20.70;99.90;;;;;;5052145;28;19983;-81
2022/08/26 07:38:47;;;;;;;;;;;20.80;99.90;;;;;;5054991;28;19960;-74
2022/08/26 07:41:14;;;;;;;;;;;20.70;99.90;;;;;;5057868;28;20394;-83
2022/08/26 07:43:39;;;;;;;;;;;20.50;99.90;;;;;;5046930;28;19985;-84
2022/08/26 07:46:05;;;;;;;;;;;20.40;99.90;;;;;;5045102;28;20007;-75
2022/08/26 07:48:31;;;;;;;;;;;20.30;99.90;;;;;;5041723;28;19971;-75
2022/08/26 07:50:57;;;;;;;;;;;20.40;99.90;;;;;;5046690;28;20398;-79
2022/08/26 07:53:22;;;;;;;;;;;20.50;99.90;;;;;;5052868;28;20011;-82
2022/08/26 07:55:48;;;;;;;;;;;20.50;99.90;;;;;;5051546;28;19939;-84
2022/08/26 07:58:14;;;;;;;;;;;20.70;99.90;;;;;;5052717;28;19912;-75
2022/08/26 08:00:40;;;;;;;;;;;21.10;99.90;;;;;;5053037;28;19920;-75
2022/08/26 08:03:06;;;;;;;;;;;21.40;99.90;;;;;;5054643;28;19958;-84
2022/08/26 08:05:31;;;;;;;;;;;21.70;99.90;;;;;;5053212;28;19916;-83
2022/08/26 08:07:57;;;;;;;;;;;22.30;99.90;;;;;;5054863;28;19917;-84
2022/08/26 08:10:24;;;;;;;;;;;24.50;99.90;;;;;;5054176;28;19920;-83
2022/08/26 08:12:50;;;;;;;;;;;27.00;99.90;;;;;;5053447;28;20357;-75
2022/08/26 08:15:16;;;;;;;;;;;28.60;99.90;;;;;;5053773;28;19919;-85
2022/08/26 08:17:42;;;;;;;;;;;29.50;99.60;;;;;;5050541;28;20304;-84
2022/08/26 08:20:08;;;;;;;;;;;30.20;98.60;;;;;;5053471;28;19916;-75
2022/08/26 08:22:34;;;;;;;;;;;31.00;97.50;;;;;;5054085;28;19963;-73
2022/08/26 08:24:59;;;;;;;;;;;31.20;96.70;;;;;;5049880;28;20360;-73
2022/08/26 08:27:25;;;;;;;;;;;31.70;96.10;;;;;;5053966;28;19909;-73
2022/08/26 08:29:55;;;;;;;;;;;31.90;95.70;;;;;;5054452;28;19923;-82
2022/08/26 08:32:21;;;;;;;;;;;30.90;96.00;;;;;;5050721;28;20024;-82
2022/08/26 08:34:47;;;;;;;;;;;29.90;97.50;;;;;;5050016;28;20012;-85
2022/08/26 08:37:12;;;;;;;;;;;30.50;96.80;;;;;;5051873;28;19959;-75
2022/08/26 08:39:38;;;;;;;;;;;31.40;95.90;;;;;;5051339;28;19920;-74
2022/08/26 08:42:06;;;;;;;;;;;31.80;95.60;;;;;;5051548;28;20379;-83
2022/08/26 08:44:32;;;;;;;;;;;30.80;95.60;;;;;;5049592;28;19920;-83
2022/08/26 08:47:01;;;;;;;;;;;30.80;96.50;;;;;;5051144;28;20363;-74
2022/08/26 08:49:27;;;;;;;;;;;29.50;97.40;;;;;;5053212;28;20327;-83
2022/08/26 08:51:55;;;;;;;;;;;28.00;98.80;;;;;;5047660;28;19921;-75
2022/08/26 08:54:21;;;;;;;;;;;26.20;99.90;;;;;;5051909;28;20259;-85
2022/08/26 08:56:54;;;;;;;;;;;25.40;99.90;;;;;;5044948;28;19996;-81
2022/08/26 08:59:24;;;;;;;;;;;24.90;99.90;;;;;;5050787;28;19913;-85
2022/08/26 09:01:49;;;;;;;;;;;25.80;99.90;;;;;;5051488;28;19909;-85
2022/08/26 09:04:25;;;;;;;;;;;26.80;99.90;;;;;;5053460;28;19916;-76
2022/08/26 09:06:52;;;;;;;;;;;29.80;99.10;;;;;;5051684;28;19947;-73
2022/08/26 09:09:22;;;;;;;;;;;30.70;97.00;;;;;;5054077;28;19909;-74
2022/08/26 09:11:47;;;;;;;;;;;29.30;97.70;;;;;;5054588;28;20015;-83
2022/08/26 09:14:13;;;;;;;;;;;28.30;99.20;;;;;;5052617;28;19971;-85
2022/08/26 09:16:50;;;;;;;;;;;27.60;99.50;;;;;;5051856;28;20294;-76
2022/08/26 09:19:18;;;;;;;;;;;27.10;99.90;;;;;;5045161;28;19909;-85
2022/08/26 09:21:44;;;;;;;;;;;27.30;99.90;;;;;;5053344;28;19913;-85
2022/08/26 09:24:10;;;;;;;;;;;28.40;99.10;;;;;;5053378;28;19916;-76
2022/08/26 09:26:38;;;;;;;;;;;28.90;98.20;;;;;;5051869;28;19919;-82
2022/08/26 09:29:07;;;;;;;;;;;30.80;96.70;;;;;;5052953;28;19920;-83
2022/08/26 09:31:37;;;;;;;;;;;31.70;96.00;;;;;;5051615;28;19975;-74
2022/08/26 09:34:12;;;;;;;;;;;33.30;94.70;;;;;;5049211;28;19921;-82
2022/08/26 09:36:40;;;;;;;;;;;34.50;93.50;;;;;;5052921;28;20471;-83
2022/08/26 09:39:26;;;;;;;;;;;34.00;93.80;;;;;;5052601;28;19920;-83
2022/08/26 09:42:04;;;;;;;;;;;34.20;93.40;;;;;;5051529;28;20430;-84
2022/08/26 09:44:30;;;;;;;;;;;33.80;93.10;;;;;;5052564;28;20372;-74
2022/08/26 09:47:03;;;;;;;;;;;34.60;93.40;;;;;;5045970;28;19913;-83
2022/08/26 09:49:34;;;;;;;;;;;35.10;92.20;;;;;;5052089;28;19917;-85
2022/08/26 09:52:09;;;;;;;;;;;35.80;91.70;;;;;;5047628;28;19909;-74
2022/08/26 09:54:35;;;;;;;;;;;35.40;91.20;;;;;;5042862;28;19921;-83
2022/08/26 09:57:21;;;;;;;;;;;35.50;92.00;;;;;;5044719;28;19921;-74
2022/08/26 09:59:48;;;;;;;;;;;35.20;91.70;;;;;;5044778;28;19959;-83
2022/08/26 10:02:16;;;;;;;;;;;35.70;91.10;;;;;;5041205;28;20479;-82
2022/08/26 10:04:49;;;;;;;;;;;35.50;91.60;;;;;;5044860;28;19964;-74
2022/08/26 10:07:32;;;;;;;;;;;35.20;91.90;;;;;;5046132;28;19944;-79
2022/08/26 10:09:58;;;;;;;;;;;35.30;91.20;;;;;;5040686;28;20295;-80
2022/08/26 10:12:24;;;;;;;;;;;35.10;90.90;;;;;;5046052;28;19920;-80
2022/08/26 10:14:58;;;;;;;;;;;35.30;90.70;;;;;;5051785;28;19916;-82
2022/08/26 10:17:24;;;;;;;;;;;35.70;90.70;;;;;;5041217;28;20353;-80
2022/08/26 10:19:58;;;;;;;;;;;35.60;91.00;;;;;;5046874;28;19920;-78
2022/08/26 10:22:41;;;;;;;;;;;36.00;90.40;;;;;;5045995;28;19924;-74
2022/08/26 10:25:10;;;;;;;;;;;36.90;90.10;;;;;;5044918;28;19959;-80
2022/08/26 10:27:42;;;;;;;;;;;36.50;88.90;;;;;;5040451;28;20066;-79
2022/08/26 10:30:12;;;;;;;;;;;34.00;91.10;;;;;;5044520;28;20046;-81
2022/08/26 10:32:40;;;;;;;;;;;33.80;91.10;;;;;;5042390;28;19940;-81
2022/08/26 10:35:06;;;;;;;;;;;31.80;92.30;;;;;;5044418;28;20007;-80
2022/08/26 10:37:35;;;;;;;;;;;30.50;93.40;;;;;;5045725;28;20000;-76
2022/08/26 10:40:06;;;;;;;;;;;29.20;94.50;;;;;;5045025;28;20057;-76
2022/08/26 10:42:33;;;;;;;;;;;28.30;95.80;;;;;;5045291;28;19975;-82
2022/08/26 10:45:25;;;;;;;;;;;28.10;96.50;;;;;;5050302;28;19948;-83
2022/08/26 10:47:56;;;;;;;;;;;27.80;96.10;;;;;;5049796;28;20010;-76
2022/08/26 10:50:24;;;;;;;;;;;27.70;96.70;;;;;;5053775;28;19981;-76
2022/08/26 10:52:53;;;;;;;;;;;27.80;96.80;;;;;;5052805;28;20371;-83
2022/08/26 10:55:23;;;;;;;;;;;29.40;96.50;;;;;;5054562;28;19925;-83
2022/08/26 10:57:53;;;;;;;;;;;30.30;94.90;;;;;;5048871;28;19935;-82
2022/08/26 11:03:10;;;;;;;;;;;28.90;96.00;;;;;;5050331;28;20402;-83
2022/08/26 11:05:36;;;;;;;;;;;28.70;96.50;;;;;;5054410;28;19916;-84
2022/08/26 11:08:19;;;;;;;;;;;30.10;95.00;;;;;;5058836;28;19978;-81
2022/08/26 11:10:45;;;;;;;;;;;31.60;93.50;;;;;;5053936;28;20354;-83
2022/08/26 11:13:10;;;;;;;;;;;32.00;93.40;;;;;;5046515;28;19916;-83
2022/08/26 11:15:39;;;;;;;;;;;31.50;93.50;;;;;;5041892;28;20265;-76
2022/08/26 11:18:06;;;;;;;;;;;31.40;93.70;;;;;;5038396;28;19952;-83
2022/08/26 11:20:43;;;;;;;;;;;31.40;93.60;;;;;;5041326;28;20449;-83
2022/08/26 11:23:12;;;;;;;;;;;31.10;93.30;;;;;;5040597;28;19924;-76
2022/08/26 11:26:00;;;;;;;;;;;31.60;93.50;;;;;;5040091;28;19913;-80
2022/08/26 11:28:34;;;;;;;;;;;31.30;93.10;;;;;;5037977;28;19971;-77
2022/08/26 11:31:00;;;;;;;;;;;30.30;93.60;;;;;;5035877;28;20295;-81
2022/08/26 11:33:52;;;;;;;;;;;29.20;94.70;;;;;;5043192;28;20024;-82
2022/08/26 11:36:27;;;;;;;;;;;28.40;95.60;;;;;;5046972;28;19932;-77
2022/08/26 11:38:53;;;;;;;;;;;28.10;95.90;;;;;;5040618;28;19913;-84
2022/08/26 11:41:20;;;;;;;;;;;28.00;95.70;;;;;;5043450;28;19939;-76
2022/08/26 11:43:49;;;;;;;;;;;27.70;95.60;;;;;;5046547;28;20011;-83
2022/08/26 11:46:22;;;;;;;;;;;27.60;96.00;;;;;;5044092;28;20023;-84
2022/08/26 11:48:48;;;;;;;;;;;28.00;95.70;;;;;;5045573;28;19913;-76
2022/08/26 11:51:23;;;;;;;;;;;28.80;95.30;;;;;;5043956;28;20273;-76
2022/08/26 11:53:49;;;;;;;;;;;29.10;94.60;;;;;;5042838;28;20303;-76
2022/08/26 11:56:21;;;;;;;;;;;29.00;94.50;;;;;;5051076;28;20368;-76
2022/08/26 11:58:46;;;;;;;;;;;28.50;95.30;;;;;;5043476;28;20016;-83
2022/08/26 12:01:20;;;;;;;;;;;28.30;95.60;;;;;;5046704;28;20012;-76
2022/08/26 12:03:49;;;;;;;;;;;27.90;95.70;;;;;;5044803;28;20303;-76
2022/08/26 12:06:16;;;;;;;;;;;27.60;96.10;;;;;;5044356;28;19913;-76
2022/08/26 12:08:43;;;;;;;;;;;27.50;95.70;;;;;;5037994;28;19920;-76
2022/08/26 12:11:28;;;;;;;;;;;27.50;95.70;;;;;;5049928;28;19913;-76
2022/08/26 12:13:58;;;;;;;;;;;27.90;95.90;;;;;;5046133;28;19998;-83
2022/08/26 12:16:25;;;;;;;;;;;28.50;95.10;;;;;;5046621;28;19955;-84
2022/08/26 12:18:51;;;;;;;;;;;28.20;95.50;;;;;;5049726;28;20481;-75
2022/08/26 12:21:21;;;;;;;;;;;28.10;95.90;;;;;;5045841;28;19913;-76
2022/08/26 12:23:48;;;;;;;;;;;28.00;95.50;;;;;;5046213;28;20257;-76
2022/08/26 12:26:34;;;;;;;;;;;28.30;95.60;;;;;;5049239;28;19917;-83
2022/08/26 12:29:04;;;;;;;;;;;28.10;95.60;;;;;;5047290;28;19995;-76
2022/08/26 12:31:30;;;;;;;;;;;28.00;95.70;;;;;;5053630;28;20016;-75
2022/08/26 12:33:57;;;;;;;;;;;28.40;95.90;;;;;;5051466;28;20362;-76
2022/08/26 12:36:26;;;;;;;;;;;29.00;94.90;;;;;;5040736;28;20059;-75
2022/08/26 12:38:52;;;;;;;;;;;29.20;95.10;;;;;;5050890;28;19913;-76
2022/08/26 12:41:37;;;;;;;;;;;29.70;95.00;;;;;;5052782;28;19913;-81
2022/08/26 12:44:03;;;;;;;;;;;30.30;94.40;;;;;;5048948;28;20392;-83
2022/08/26 12:46:29;;;;;;;;;;;30.60;93.80;;;;;;5045340;28;19917;-76
2022/08/26 12:48:59;;;;;;;;;;;30.40;94.10;;;;;;5050310;28;19919;-83
2022/08/26 12:51:33;;;;;;;;;;;29.70;94.30;;;;;;5049257;28;19913;-83
2022/08/26 12:53:59;;;;;;;;;;;29.20;95.30;;;;;;5047056;28;20341;-84
2022/08/26 12:56:38;;;;;;;;;;;28.50;95.00;;;;;;5048759;28;19917;-84
2022/08/26 12:59:17;;;;;;;;;;;28.30;95.90;;;;;;5046722;28;19982;-76
2022/08/26 13:01:44;;;;;;;;;;;27.80;95.50;;;;;;5045401;28;19986;-84
2022/08/26 13:04:28;;;;;;;;;;;27.30;95.80;;;;;;5048321;28;19924;-76
2022/08/26 13:07:12;;;;;;;;;;;27.30;96.10;;;;;;5048807;28;19923;-76
2022/08/26 13:09:37;;;;;;;;;;;27.30;96.50;;;;;;5052709;28;20488;-84
2022/08/26 13:12:03;;;;;;;;;;;28.00;96.10;;;;;;5049877;28;20011;-84
2022/08/26 13:14:29;;;;;;;;;;;28.80;95.60;;;;;;5048628;28;19913;-84
2022/08/26 13:16:55;;;;;;;;;;;29.30;95.00;;;;;;5057765;28;19921;-83
2022/08/26 13:19:22;;;;;;;;;;;29.60;95.00;;;;;;5042846;28;19913;-83
2022/08/26 13:21:47;;;;;;;;;;;29.90;94.80;;;;;;5044205;28;19913;-84
2022/08/26 13:24:18;;;;;;;;;;;29.80;94.50;;;;;;5047725;28;20027;-75
2022/08/26 13:26:45;;;;;;;;;;;29.40;94.70;;;;;;5055911;28;19913;-75
2022/08/26 13:29:11;;;;;;;;;;;29.60;94.70;;;;;;5056335;28;19913;-84
2022/08/26 13:31:38;;;;;;;;;;;29.70;94.50;;;;;;5046963;28;19921;-85
2022/08/26 13:34:04;;;;;;;;;;;29.80;94.80;;;;;;5043512;28;20448;-85
2022/08/26 13:36:29;;;;;;;;;;;30.10;94.40;;;;;;5047029;28;20396;-76
2022/08/26 13:38:55;;;;;;;;;;;29.90;94.60;;;;;;5048086;28;19913;-84
2022/08/26 13:41:20;;;;;;;;;;;29.50;94.90;;;;;;5047607;28;19917;-76
2022/08/26 13:43:46;;;;;;;;;;;29.30;95.30;;;;;;5052117;28;19919;-83
2022/08/26 13:46:11;;;;;;;;;;;29.00;95.60;;;;;;5047241;28;19936;-85
2022/08/26 13:48:37;;;;;;;;;;;29.10;95.00;;;;;;5048311;28;19968;-84
2022/08/26 13:51:03;;;;;;;;;;;29.10;95.60;;;;;;5039284;28;20020;-76
2022/08/26 13:53:30;;;;;;;;;;;29.00;95.80;;;;;;5044723;28;19935;-76
2022/08/26 13:55:56;;;;;;;;;;;29.10;95.70;;;;;;5053439;28;19924;-85
2022/08/26 13:58:21;;;;;;;;;;;28.90;96.00;;;;;;5046931;28;19921;-85
2022/08/26 14:00:47;;;;;;;;;;;28.80;95.80;;;;;;5041503;28;19913;-86
2022/08/26 14:03:13;;;;;;;;;;;29.00;95.60;;;;;;5047451;28;19919;-76
2022/08/26 14:05:39;;;;;;;;;;;29.00;95.30;;;;;;5045516;28;19913;-76
2022/08/26 14:08:04;;;;;;;;;;;28.80;95.30;;;;;;5048912;28;20011;-83
2022/08/26 14:10:30;;;;;;;;;;;28.90;96.10;;;;;;5051216;28;20007;-85
2022/08/26 14:12:55;;;;;;;;;;;28.70;96.50;;;;;;5058472;28;19919;-76
2022/08/26 14:15:21;;;;;;;;;;;28.60;96.30;;;;;;5061268;28;20435;-76
2022/08/26 14:17:47;;;;;;;;;;;28.70;96.20;;;;;;5059160;28;20326;-76
2022/08/26 14:20:14;;;;;;;;;;;29.00;96.00;;;;;;5057667;28;20264;-85
2022/08/26 14:22:41;;;;;;;;;;;29.10;96.00;;;;;;5058128;28;19913;-85
2022/08/26 14:25:07;;;;;;;;;;;29.20;95.70;;;;;;5055388;28;20441;-84
2022/08/26 14:27:32;;;;;;;;;;;29.70;95.50;;;;;;5052376;28;19913;-76
2022/08/26 14:29:58;;;;;;;;;;;29.70;94.90;;;;;;5055324;28;19920;-76